Time;durP1;ratioP1;P1;durP2;ratioP2;P2;SDS_P1;SDS_P2;PMS_P1;PMS_P2;Temp;Humidity;BMP_temperature;BMP_pressure;BME280_temperature;BME280_humidity;BME280_pressure;Samples;Min_cycle;Max_cycle;Signal;HPM_P1;HPM_P2
2023/10/23 00:01:39;;;;;;;13.18;11.90;;;;;;;;;;4987519;28;20420;-76
2023/10/23 00:04:06;;;;;;;13.50;10.80;;;;;;;;;;5011234;28;20184;-76
2023/10/23 00:06:32;;;;;;;12.40;11.10;;;;;;;;;;5010628;28;20439;-80
2023/10/23 00:08:58;;;;;;;14.20;12.80;;;;;;;;;;4994107;28;20460;-80
2023/10/23 00:11:28;;;;;;;14.05;12.65;;;;;;;;;;5001569;28;20424;-80
2023/10/23 00:13:55;;;;;;;15.07;13.48;;;;;;;;;;5013308;28;20451;-78
2023/10/23 00:16:21;;;;;;;14.65;13.15;;;;;;;;;;4995297;28;20424;-77
2023/10/23 00:18:48;;;;;;;14.93;13.52;;;;;;;;;;5004034;28;20409;-77
2023/10/23 00:21:14;;;;;;;15.13;13.30;;;;;;;;;;5005532;28;20449;-77
2023/10/23 00:23:40;;;;;;;15.43;13.85;;;;;;;;;;4997593;28;20451;-77
2023/10/23 00:26:06;;;;;;;14.77;13.38;;;;;;;;;;5001170;28;20428;-77
2023/10/23 00:28:33;;;;;;;15.38;13.77;;;;;;;;;;5005474;28;20442;-77
2023/10/23 00:30:59;;;;;;;15.73;14.00;;;;;;;;;;4999809;28;20459;-77
2023/10/23 00:33:26;;;;;;;15.93;14.13;;;;;;;;;;5021067;28;20445;-77
2023/10/23 00:35:52;;;;;;;18.35;15.20;;;;;;;;;;5004577;28;20410;-77
2023/10/23 00:38:20;;;;;;;18.13;16.10;;;;;;;;;;5005905;28;20414;-77
2023/10/23 00:40:46;;;;;;;22.67;18.75;;;;;;;;;;4987276;28;20437;-77
2023/10/23 00:43:13;;;;;;;24.35;20.20;;;;;;;;;;5001746;28;20420;-77
2023/10/23 00:45:49;;;;;;;24.07;17.00;;;;;;;;;;5003880;28;20189;-77
2023/10/23 00:48:15;;;;;;;22.87;18.07;;;;;;;;;;5002223;28;20460;-77
2023/10/23 00:50:41;;;;;;;23.48;19.77;;;;;;;;;;4986224;28;20455;-77
2023/10/23 00:53:07;;;;;;;21.23;17.83;;;;;;;;;;5001001;28;20461;-77
2023/10/23 00:55:33;;;;;;;21.90;18.08;;;;;;;;;;5001292;28;20478;-77
2023/10/23 00:57:59;;;;;;;19.02;16.77;;;;;;;;;;4990256;28;20415;-76
2023/10/23 01:00:25;;;;;;;19.67;15.07;;;;;;;;;;5001350;28;20185;-76
2023/10/23 01:02:51;;;;;;;18.63;16.27;;;;;;;;;;4983312;28;20518;-76
2023/10/23 01:05:17;;;;;;;16.90;14.60;;;;;;;;;;4996851;28;20424;-76
2023/10/23 01:07:43;;;;;;;17.58;15.50;;;;;;;;;;5001754;28;20444;-76
2023/10/23 01:10:09;;;;;;;16.67;13.80;;;;;;;;;;5001350;28;20249;-76
2023/10/23 01:12:35;;;;;;;16.75;14.95;;;;;;;;;;5004126;28;20422;-76
2023/10/23 01:15:01;;;;;;;17.13;15.33;;;;;;;;;;5001036;28;20417;-76
2023/10/23 01:17:27;;;;;;;17.80;14.23;;;;;;;;;;5002767;28;20407;-76
2023/10/23 01:19:53;;;;;;;15.10;13.52;;;;;;;;;;4998093;28;20440;-76
2023/10/23 01:22:19;;;;;;;16.25;14.50;;;;;;;;;;4991667;28;20448;-76
2023/10/23 01:24:48;;;;;;;18.88;15.95;;;;;;;;;;5001395;28;20451;-76
2023/10/23 01:27:14;;;;;;;16.98;15.20;;;;;;;;;;5001156;28;20424;-76
2023/10/23 01:29:40;;;;;;;17.40;15.55;;;;;;;;;;4979836;28;20443;-76
2023/10/23 01:32:06;;;;;;;18.10;14.75;;;;;;;;;;4995716;28;20413;-76
2023/10/23 01:34:32;;;;;;;16.60;14.87;;;;;;;;;;5004204;28;20512;-76
2023/10/23 01:36:58;;;;;;;17.27;14.77;;;;;;;;;;5003096;28;20431;-76
2023/10/23 01:39:24;;;;;;;16.42;14.55;;;;;;;;;;4981743;28;20423;-76
2023/10/23 01:41:50;;;;;;;15.90;13.63;;;;;;;;;;5001802;28;20441;-76
2023/10/23 01:44:16;;;;;;;15.88;14.18;;;;;;;;;;4986955;28;20420;-76
2023/10/23 01:46:42;;;;;;;17.85;16.02;;;;;;;;;;4999278;28;20523;-76
2023/10/23 01:49:08;;;;;;;18.00;16.20;;;;;;;;;;5002143;28;20491;-76
2023/10/23 01:51:34;;;;;;;17.17;14.65;;;;;;;;;;4984609;28;20424;-76
2023/10/23 01:54:00;;;;;;;14.90;13.50;;;;;;;;;;4985693;28;20414;-76
2023/10/23 01:56:26;;;;;;;15.95;14.27;;;;;;;;;;5001328;28;20469;-76
2023/10/23 01:58:52;;;;;;;22.90;17.58;;;;;;;;;;4992978;28;20438;-77
2023/10/23 02:01:22;;;;;;;21.95;17.88;;;;;;;;;;4999027;28;20419;-77
2023/10/23 02:03:49;;;;;;;30.15;19.65;;;;;;;;;;5000427;28;20427;-76
2023/10/23 02:06:15;;;;;;;28.75;19.33;;;;;;;;;;4988657;23;20419;-77
2023/10/23 02:08:41;;;;;;;27.77;18.85;;;;;;;;;;5030301;28;20499;-79
2023/10/23 02:11:07;;;;;;;24.20;17.73;;;;;;;;;;5023465;28;20441;-79
2023/10/23 02:13:34;;;;;;;43.35;18.20;;;;;;;;;;5048181;28;20440;-80
2023/10/23 02:16:00;;;;;;;107.68;19.77;;;;;;;;;;5028948;28;20410;-79
2023/10/23 02:18:26;;;;;;;24.00;17.57;;;;;;;;;;5013505;28;20407;-80
2023/10/23 02:20:52;;;;;;;18.95;16.27;;;;;;;;;;5047510;28;20488;-76
2023/10/23 02:23:18;;;;;;;21.63;15.07;;;;;;;;;;5014801;28;20441;-76
2023/10/23 02:25:44;;;;;;;21.70;15.20;;;;;;;;;;5031266;28;20425;-76
2023/10/23 02:28:10;;;;;;;18.63;16.70;;;;;;;;;;5017334;28;20439;-77
2023/10/23 02:30:36;;;;;;;16.73;14.70;;;;;;;;;;5014677;28;20212;-77
2023/10/23 02:33:02;;;;;;;17.27;15.57;;;;;;;;;;5027601;28;20419;-77
2023/10/23 02:35:28;;;;;;;15.40;13.90;;;;;;;;;;5034271;28;20188;-77
2023/10/23 02:37:54;;;;;;;17.30;15.10;;;;;;;;;;5019215;28;20425;-77
2023/10/23 02:40:21;;;;;;;16.08;14.57;;;;;;;;;;5018350;28;20442;-77
2023/10/23 02:42:47;;;;;;;13.77;12.43;;;;;;;;;;5043734;28;20223;-77
2023/10/23 02:45:13;;;;;;;14.73;13.23;;;;;;;;;;5034301;28;20421;-77
2023/10/23 02:47:39;;;;;;;13.00;11.73;;;;;;;;;;5016755;28;20223;-77
2023/10/23 02:50:06;;;;;;;15.30;13.80;;;;;;;;;;5030241;28;20440;-77
2023/10/23 02:52:32;;;;;;;18.10;14.43;;;;;;;;;;5034201;28;20413;-77
2023/10/23 02:54:58;;;;;;;16.67;14.90;;;;;;;;;;5034524;28;20471;-79
2023/10/23 02:57:24;;;;;;;21.85;15.88;;;;;;;;;;5035661;28;20409;-79
2023/10/23 02:59:50;;;;;;;18.48;15.27;;;;;;;;;;5030328;28;20411;-80
2023/10/23 03:02:16;;;;;;;22.80;15.90;;;;;;;;;;5031579;28;20410;-79
2023/10/23 03:04:42;;;;;;;21.80;17.33;;;;;;;;;;5018069;28;20441;-79
2023/10/23 03:07:09;;;;;;;18.08;16.17;;;;;;;;;;5029912;28;20437;-80
2023/10/23 03:09:36;;;;;;;17.08;15.38;;;;;;;;;;5018933;28;20440;-77
2023/10/23 03:12:02;;;;;;;16.52;14.88;;;;;;;;;;5024031;28;20466;-77
2023/10/23 03:14:28;;;;;;;17.30;15.60;;;;;;;;;;5031848;28;20511;-76
2023/10/23 03:16:55;;;;;;;16.38;14.18;;;;;;;;;;5028185;28;20506;-77
2023/10/23 03:19:24;;;;;;;18.75;15.70;;;;;;;;;;5029920;28;20502;-77
2023/10/23 03:21:50;;;;;;;28.85;16.17;;;;;;;;;;5013411;28;20473;-76
2023/10/23 03:24:16;;;;;;;52.30;18.00;;;;;;;;;;5025679;28;20419;-76
2023/10/23 03:26:42;;;;;;;37.47;14.70;;;;;;;;;;5036004;28;20230;-77
2023/10/23 03:29:08;;;;;;;19.63;15.17;;;;;;;;;;5039098;28;20213;-77
2023/10/23 03:31:34;;;;;;;18.40;15.30;;;;;;;;;;5011255;28;20190;-77
2023/10/23 03:34:01;;;;;;;19.63;17.40;;;;;;;;;;5014460;28;20480;-77
2023/10/23 03:36:27;;;;;;;19.98;17.27;;;;;;;;;;5031060;28;20411;-77
2023/10/23 03:38:54;;;;;;;20.33;18.23;;;;;;;;;;5017208;28;20418;-77
2023/10/23 03:41:20;;;;;;;20.27;18.02;;;;;;;;;;5028465;28;20447;-77
2023/10/23 03:43:46;;;;;;;24.00;19.88;;;;;;;;;;5025249;28;20412;-76
2023/10/23 03:46:12;;;;;;;22.25;19.60;;;;;;;;;;5014666;28;20426;-76
2023/10/23 03:48:38;;;;;;;29.23;19.63;;;;;;;;;;5016410;28;20438;-76
2023/10/23 03:51:04;;;;;;;25.75;20.10;;;;;;;;;;5016951;28;20418;-76
2023/10/23 03:53:30;;;;;;;25.80;20.45;;;;;;;;;;5032823;28;20429;-76
2023/10/23 03:55:56;;;;;;;23.77;19.05;;;;;;;;;;5033264;28;20504;-76
2023/10/23 03:58:22;;;;;;;39.15;20.92;;;;;;;;;;5032218;28;20445;-76
2023/10/23 04:00:52;;;;;;;35.70;20.70;;;;;;;;;;5019046;28;20409;-80
2023/10/23 04:03:18;;;;;;;25.30;19.77;;;;;;;;;;5017203;28;20410;-80
2023/10/23 04:05:44;;;;;;;48.33;21.25;;;;;;;;;;5021340;28;20414;-80
2023/10/23 04:08:10;;;;;;;51.30;20.17;;;;;;;;;;5041805;28;20429;-80
2023/10/23 04:10:36;;;;;;;99.82;21.20;;;;;;;;;;5027196;28;20432;-79
2023/10/23 04:13:02;;;;;;;62.78;21.08;;;;;;;;;;5037514;28;20423;-80
2023/10/23 04:15:28;;;;;;;73.40;21.90;;;;;;;;;;5014999;28;20474;-80
2023/10/23 04:17:54;;;;;;;57.25;22.05;;;;;;;;;;5043612;28;20438;-78
2023/10/23 04:20:20;;;;;;;63.90;21.45;;;;;;;;;;5024640;28;20441;-78
2023/10/23 04:22:46;;;;;;;68.67;21.60;;;;;;;;;;5033791;28;20555;-78
2023/10/23 04:25:12;;;;;;;72.45;22.48;;;;;;;;;;5035027;28;20425;-77
2023/10/23 04:27:38;;;;;;;71.30;21.65;;;;;;;;;;5032220;28;20421;-77
2023/10/23 04:30:05;;;;;;;74.17;22.60;;;;;;;;;;5018790;28;20435;-77
2023/10/23 04:32:31;;;;;;;77.78;21.65;;;;;;;;;;5045950;28;20426;-77
2023/10/23 04:34:57;;;;;;;79.32;22.70;;;;;;;;;;5034587;28;20432;-76
2023/10/23 04:37:23;;;;;;;55.80;22.00;;;;;;;;;;5016963;28;20413;-76
2023/10/23 04:39:49;;;;;;;33.63;19.50;;;;;;;;;;5046518;28;20456;-76
2023/10/23 04:42:15;;;;;;;68.65;20.17;;;;;;;;;;5047615;28;20469;-76
2023/10/23 04:44:41;;;;;;;66.70;18.02;;;;;;;;;;5050600;28;20425;-76
2023/10/23 04:47:07;;;;;;;61.17;16.57;;;;;;;;;;5034087;28;20185;-76
2023/10/23 04:49:33;;;;;;;70.60;21.60;;;;;;;;;;5033283;28;20440;-76
2023/10/23 04:51:59;;;;;;;54.93;17.37;;;;;;;;;;5034138;28;20185;-77
2023/10/23 04:54:25;;;;;;;109.97;23.30;;;;;;;;;;5016874;28;20490;-77
2023/10/23 04:56:51;;;;;;;84.45;23.25;;;;;;;;;;5018512;28;20452;-77
2023/10/23 04:59:17;;;;;;;136.02;24.25;;;;;;;;;;5017751;28;20429;-77
2023/10/23 05:01:43;;;;;;;50.22;19.88;;;;;;;;;;5017320;28;20421;-77
2023/10/23 05:04:09;;;;;;;29.97;16.43;;;;;;;;;;5017445;28;20195;-77
2023/10/23 05:06:36;;;;;;;33.03;17.57;;;;;;;;;;5033729;28;20214;-77
2023/10/23 05:09:02;;;;;;;59.00;18.10;;;;;;;;;;5017473;28;20208;-77
2023/10/23 05:11:29;;;;;;;60.57;22.60;;;;;;;;;;5040693;28;20467;-77
2023/10/23 05:13:55;;;;;;;61.97;19.00;;;;;;;;;;5054425;28;20409;-77
2023/10/23 05:16:21;;;;;;;52.15;18.73;;;;;;;;;;5036748;28;20488;-76
2023/10/23 05:18:47;;;;;;;35.47;16.50;;;;;;;;;;5034491;28;20191;-77
2023/10/23 05:21:13;;;;;;;29.60;20.38;;;;;;;;;;5033333;28;20406;-77
2023/10/23 05:23:40;;;;;;;29.85;19.52;;;;;;;;;;5013250;28;20421;-76
2023/10/23 05:26:15;;;;;;;26.45;19.08;;;;;;;;;;5028464;28;20517;-76
2023/10/23 05:28:41;;;;;;;24.98;19.35;;;;;;;;;;5017587;28;20413;-76
2023/10/23 05:31:09;;;;;;;23.77;19.38;;;;;;;;;;5043914;28;20433;-76
2023/10/23 05:33:35;;;;;;;23.37;16.77;;;;;;;;;;5039745;28;20268;-76
2023/10/23 05:36:05;;;;;;;20.23;15.23;;;;;;;;;;5034392;28;20176;-76
2023/10/23 05:38:31;;;;;;;18.67;15.03;;;;;;;;;;5033201;28;20180;-76
2023/10/23 05:40:58;;;;;;;25.98;18.33;;;;;;;;;;5037128;28;20421;-76
2023/10/23 05:43:27;;;;;;;21.73;17.80;;;;;;;;;;5030614;28;20494;-76
2023/10/23 05:45:57;;;;;;;21.77;17.67;;;;;;;;;;5029719;28;20407;-76
2023/10/23 05:48:24;;;;;;;15.77;14.07;;;;;;;;;;5031708;28;20181;-76
2023/10/23 05:50:58;;;;;;;20.63;16.67;;;;;;;;;;5025321;28;20421;-76
2023/10/23 05:53:24;;;;;;;29.97;15.67;;;;;;;;;;5027595;28;20495;-76
2023/10/23 05:55:50;;;;;;;59.37;20.27;;;;;;;;;;5008780;28;20427;-76
2023/10/23 05:58:16;;;;;;;115.30;21.88;;;;;;;;;;5012460;28;20427;-77
2023/10/23 06:00:42;;;;;;;245.13;25.23;;;;;;;;;;5024551;28;20410;-76
2023/10/23 06:03:08;;;;;;;138.52;22.95;;;;;;;;;;5024013;28;20414;-76
2023/10/23 06:05:39;;;;;;;201.65;22.38;;;;;;;;;;5027283;28;20455;-77
2023/10/23 06:08:05;;;;;;;62.03;18.88;;;;;;;;;;5045811;28;20461;-77
2023/10/23 06:10:31;;;;;;;217.53;19.60;;;;;;;;;;5047400;28;20217;-77
2023/10/23 06:12:58;;;;;;;33.97;20.25;;;;;;;;;;5027046;28;20492;-81
2023/10/23 06:15:23;;;;;;;69.75;21.27;;;;;;;;;;5037333;28;20406;-80
2023/10/23 06:17:50;;;;;;;54.60;22.10;;;;;;;;;;5037236;28;20525;-80
2023/10/23 06:20:16;;;;;;;57.13;21.65;;;;;;;;;;5020956;28;20428;-80
2023/10/23 06:22:42;;;;;;;60.35;22.75;;;;;;;;;;5036143;28;20417;-80
2023/10/23 06:25:08;;;;;;;64.53;20.33;;;;;;;;;;5036762;28;20215;-80
2023/10/23 06:27:34;;;;;;;55.70;22.33;;;;;;;;;;5019502;28;20436;-80
2023/10/23 06:30:00;;;;;;;46.90;24.45;;;;;;;;;;5020841;28;20425;-77
2023/10/23 06:32:26;;;;;;;35.13;22.60;;;;;;;;;;5032611;28;20434;-76
2023/10/23 06:34:53;;;;;;;58.08;26.38;;;;;;;;;;5019293;28;20405;-76
2023/10/23 06:37:20;;;;;;;68.80;27.67;;;;;;;;;;5031278;28;20427;-76
2023/10/23 06:39:46;;;;;;;80.38;28.88;;;;;;;;;;5034923;28;20423;-76
2023/10/23 06:42:12;;;;;;;110.28;27.08;;;;;;;;;;5034187;28;20421;-76
2023/10/23 06:44:38;;;;;;;113.13;28.33;;;;;;;;;;5041821;28;20487;-76
2023/10/23 06:47:04;;;;;;;77.65;27.08;;;;;;;;;;5035429;28;20498;-76
2023/10/23 06:49:30;;;;;;;141.18;26.83;;;;;;;;;;5028085;28;20566;-76
2023/10/23 06:51:56;;;;;;;105.97;24.40;;;;;;;;;;5029356;28;20437;-76
2023/10/23 06:54:23;;;;;;;163.65;22.40;;;;;;;;;;5035585;28;20460;-76
2023/10/23 06:56:49;;;;;;;264.38;23.92;;;;;;;;;;5045716;28;20425;-76
2023/10/23 06:59:15;;;;;;;181.00;25.55;;;;;;;;;;5038399;28;20436;-76
2023/10/23 07:01:41;;;;;;;235.35;27.08;;;;;;;;;;5021254;28;20413;-76
2023/10/23 07:04:07;;;;;;;204.13;22.75;;;;;;;;;;5022037;28;20452;-76
2023/10/23 07:06:33;;;;;;;222.30;24.98;;;;;;;;;;5050239;28;20464;-77
2023/10/23 07:08:59;;;;;;;265.92;23.63;;;;;;;;;;5012813;28;20464;-77
2023/10/23 07:11:26;;;;;;;187.18;23.35;;;;;;;;;;5032585;28;20411;-77
2023/10/23 07:13:55;;;;;;;204.80;24.07;;;;;;;;;;5017122;28;20529;-79
2023/10/23 07:16:21;;;;;;;242.87;25.00;;;;;;;;;;5027466;28;20411;-77
2023/10/23 07:18:47;;;;;;;98.47;22.08;;;;;;;;;;5014639;28;20447;-78
2023/10/23 07:21:13;;;;;;;250.37;24.73;;;;;;;;;;5030062;28;20413;-78
2023/10/23 07:23:39;;;;;;;277.38;27.02;;;;;;;;;;5015949;28;20454;-78
2023/10/23 07:26:10;;;;;;;195.60;23.75;;;;;;;;;;5035739;28;20466;-78
2023/10/23 07:28:40;;;;;;;283.88;27.08;;;;;;;;;;5030583;28;20414;-78
2023/10/23 07:31:07;;;;;;;167.45;23.95;;;;;;;;;;5030088;28;20500;-78
2023/10/23 07:33:34;;;;;;;159.15;23.05;;;;;;;;;;5013912;28;20446;-78
2023/10/23 07:36:18;;;;;;;134.90;22.45;;;;;;;;;;5032028;28;20416;-77
2023/10/23 07:38:44;;;;;;;137.88;21.92;;;;;;;;;;5028165;28;20444;-79
2023/10/23 07:41:11;;;;;;;152.90;21.70;;;;;;;;;;5017682;28;20413;-80
2023/10/23 07:43:38;;;;;;;130.57;21.40;;;;;;;;;;5031645;28;20402;-79
2023/10/23 07:46:08;;;;;;;106.10;22.08;;;;;;;;;;5023700;28;20411;-79
2023/10/23 07:48:34;;;;;;;185.70;21.77;;;;;;;;;;5014506;28;20403;-79
2023/10/23 07:51:01;;;;;;;109.93;21.35;;;;;;;;;;5015102;28;20494;-78
2023/10/23 07:53:27;;;;;;;132.13;22.77;;;;;;;;;;5014700;28;20422;-78
2023/10/23 07:55:53;;;;;;;141.35;23.33;;;;;;;;;;5014169;28;20411;-77
2023/10/23 07:58:20;;;;;;;123.30;23.77;;;;;;;;;;5014241;28;20411;-77
2023/10/23 08:00:46;;;;;;;97.00;24.03;;;;;;;;;;5032417;28;20409;-77
2023/10/23 08:03:13;;;;;;;115.75;24.65;;;;;;;;;;5034255;28;20420;-77
2023/10/23 08:05:39;;;;;;;90.00;21.40;;;;;;;;;;5034011;28;20410;-77
2023/10/23 08:08:05;;;;;;;59.10;19.75;;;;;;;;;;5020250;23;20472;-77
2023/10/23 08:10:31;;;;;;;52.85;18.88;;;;;;;;;;5009544;28;20445;-77
2023/10/23 08:12:57;;;;;;;57.40;16.33;;;;;;;;;;5008640;28;20472;-77
2023/10/23 08:15:23;;;;;;;58.80;15.60;;;;;;;;;;5026251;28;20422;-77
2023/10/23 08:17:50;;;;;;;69.75;16.83;;;;;;;;;;5009380;28;20413;-77
2023/10/23 08:20:17;;;;;;;81.63;17.67;;;;;;;;;;5007483;28;20411;-77
2023/10/23 08:22:43;;;;;;;82.63;18.33;;;;;;;;;;5007110;28;20424;-77
2023/10/23 08:25:09;;;;;;;81.85;18.85;;;;;;;;;;5009278;28;20412;-77
2023/10/23 08:27:35;;;;;;;67.45;20.05;;;;;;;;;;5026602;28;20428;-77
2023/10/23 08:30:01;;;;;;;67.03;18.33;;;;;;;;;;5030135;28;20433;-77
2023/10/23 08:32:28;;;;;;;66.40;21.15;;;;;;;;;;5008991;28;20441;-77
2023/10/23 08:34:54;;;;;;;52.60;19.50;;;;;;;;;;5016322;28;20449;-77
2023/10/23 08:37:20;;;;;;;49.47;21.38;;;;;;;;;;5028732;28;20431;-77
2023/10/23 08:39:46;;;;;;;29.13;18.90;;;;;;;;;;5005329;28;20445;-77
2023/10/23 08:42:12;;;;;;;51.00;18.00;;;;;;;;;;5017182;28;20426;-78
2023/10/23 08:44:39;;;;;;;65.07;19.00;;;;;;;;;;5013658;28;20520;-77
2023/10/23 08:47:05;;;;;;;65.88;18.85;;;;;;;;;;5031028;28;20497;-77
2023/10/23 08:49:31;;;;;;;29.03;18.60;;;;;;;;;;5027931;28;21010;-77
2023/10/23 08:51:59;;;;;;;42.22;19.38;;;;;;;;;;5017194;28;20429;-77
2023/10/23 08:54:25;;;;;;;52.70;20.92;;;;;;;;;;5032660;28;20404;-77
2023/10/23 08:56:59;;;;;;;51.30;22.30;;;;;;;;;;5023016;28;20423;-77
2023/10/23 08:59:26;;;;;;;47.08;21.90;;;;;;;;;;5026540;28;20410;-78
2023/10/23 09:01:52;;;;;;;52.47;20.48;;;;;;;;;;5023471;28;20506;-77
2023/10/23 09:04:18;;;;;;;34.35;23.25;;;;;;;;;;5027553;28;20412;-78
2023/10/23 09:06:44;;;;;;;29.90;22.47;;;;;;;;;;5007783;28;20443;-78
2023/10/23 09:09:10;;;;;;;36.20;23.98;;;;;;;;;;5019356;28;20554;-78
2023/10/23 09:11:43;;;;;;;31.25;23.27;;;;;;;;;;5008908;28;20401;-78
2023/10/23 09:14:10;;;;;;;31.08;24.10;;;;;;;;;;5026973;28;20401;-78
2023/10/23 09:16:36;;;;;;;29.55;23.65;;;;;;;;;;5008228;28;20422;-77
2023/10/23 09:19:03;;;;;;;30.77;23.90;;;;;;;;;;5022707;28;20492;-77
2023/10/23 09:21:30;;;;;;;34.50;24.58;;;;;;;;;;5020992;28;20411;-77
2023/10/23 09:23:58;;;;;;;32.50;24.75;;;;;;;;;;5025090;28;20423;-77
2023/10/23 09:26:25;;;;;;;31.80;24.77;;;;;;;;;;5020997;28;20428;-78
2023/10/23 09:28:54;;;;;;;29.70;21.85;;;;;;;;;;5031229;28;20433;-77
2023/10/23 09:31:21;;;;;;;30.45;22.48;;;;;;;;;;5024632;28;20424;-77
2023/10/23 09:33:47;;;;;;;28.58;22.33;;;;;;;;;;5020645;28;20407;-76
2023/10/23 09:36:14;;;;;;;25.77;20.70;;;;;;;;;;5021428;28;20406;-77
2023/10/23 09:38:42;;;;;;;28.63;25.45;;;;;;;;;;5031415;28;20480;-76
2023/10/23 09:41:09;;;;;;;27.95;24.75;;;;;;;;;;5021756;28;20403;-76
2023/10/23 09:43:37;;;;;;;27.40;24.35;;;;;;;;;;5022681;28;20419;-76
2023/10/23 09:46:03;;;;;;;30.20;26.13;;;;;;;;;;5023450;28;20407;-76
2023/10/23 09:48:30;;;;;;;27.85;23.70;;;;;;;;;;5018692;28;20457;-76
2023/10/23 09:51:00;;;;;;;23.30;20.83;;;;;;;;;;5023007;28;20507;-78
2023/10/23 09:53:26;;;;;;;22.42;19.77;;;;;;;;;;5018502;28;20410;-78
2023/10/23 09:55:55;;;;;;;20.55;17.90;;;;;;;;;;5024035;28;20430;-78
2023/10/23 09:58:21;;;;;;;19.02;17.20;;;;;;;;;;5019757;28;20489;-78
2023/10/23 10:00:48;;;;;;;19.17;17.17;;;;;;;;;;5029692;28;20448;-78
2023/10/23 10:03:17;;;;;;;18.98;16.35;;;;;;;;;;5023715;28;20426;-78
2023/10/23 10:06:01;;;;;;;20.58;18.17;;;;;;;;;;5012474;28;20449;-78
2023/10/23 10:08:29;;;;;;;18.88;16.88;;;;;;;;;;5012323;28;20435;-82
2023/10/23 10:10:55;;;;;;;18.13;15.73;;;;;;;;;;5024891;28;20443;-82
2023/10/23 10:13:21;;;;;;;20.07;14.73;;;;;;;;;;5013249;28;20189;-82
2023/10/23 10:15:48;;;;;;;16.67;14.10;;;;;;;;;;5012911;28;20411;-82
2023/10/23 10:18:16;;;;;;;14.60;13.05;;;;;;;;;;5012327;28;20411;-82
2023/10/23 10:20:46;;;;;;;14.43;11.20;;;;;;;;;;5014627;28;20173;-82
2023/10/23 10:23:13;;;;;;;15.57;11.80;;;;;;;;;;5031437;28;20422;-78
2023/10/23 10:25:40;;;;;;;18.80;11.27;;;;;;;;;;5026518;28;20411;-78
2023/10/23 10:28:07;;;;;;;15.52;10.75;;;;;;;;;;5015657;28;20443;-78
2023/10/23 10:30:52;;;;;;;15.23;10.02;;;;;;;;;;5023027;28;20427;-78
2023/10/23 10:33:25;;;;;;;12.48;9.57;;;;;;;;;;5028828;28;20410;-78
2023/10/23 10:35:52;;;;;;;13.30;9.70;;;;;;;;;;5012390;28;20415;-78
2023/10/23 10:38:22;;;;;;;14.20;9.57;;;;;;;;;;5044085;28;20400;-78
2023/10/23 10:40:56;;;;;;;11.23;10.02;;;;;;;;;;5052898;28;20426;-76
2023/10/23 10:43:23;;;;;;;12.93;9.98;;;;;;;;;;5027252;28;20422;-79
2023/10/23 10:45:49;;;;;;;15.83;10.00;;;;;;;;;;5024199;28;20409;-76
2023/10/23 10:48:16;;;;;;;15.17;11.57;;;;;;;;;;5024053;28;20410;-76
2023/10/23 10:50:42;;;;;;;13.95;11.57;;;;;;;;;;5018584;28;20502;-76
2023/10/23 10:53:09;;;;;;;16.05;12.20;;;;;;;;;;5023101;28;20405;-82
2023/10/23 10:55:36;;;;;;;20.23;13.68;;;;;;;;;;5019012;28;20409;-82
2023/10/23 10:58:03;;;;;;;19.50;15.63;;;;;;;;;;5024367;28;20425;-82
2023/10/23 11:00:35;;;;;;;19.33;16.67;;;;;;;;;;5031444;28;20418;-82
2023/10/23 11:03:01;;;;;;;18.77;16.25;;;;;;;;;;5020788;28;20410;-82
2023/10/23 11:05:27;;;;;;;20.15;16.50;;;;;;;;;;5026401;28;20405;-75
2023/10/23 11:07:53;;;;;;;21.95;17.83;;;;;;;;;;5026785;28;20433;-78
2023/10/23 11:10:20;;;;;;;20.92;16.63;;;;;;;;;;5008093;28;20445;-77
2023/10/23 11:12:47;;;;;;;20.95;16.50;;;;;;;;;;5030925;28;20407;-78
2023/10/23 11:15:13;;;;;;;21.38;16.73;;;;;;;;;;5025488;28;20407;-78
2023/10/23 11:17:43;;;;;;;20.33;17.58;;;;;;;;;;5016519;28;20435;-82
2023/10/23 11:20:10;;;;;;;22.15;19.08;;;;;;;;;;5016374;28;20410;-76
2023/10/23 11:22:38;;;;;;;28.52;20.30;;;;;;;;;;5017792;28;20498;-76
2023/10/23 11:25:06;;;;;;;23.42;19.65;;;;;;;;;;5025299;28;20417;-78
2023/10/23 11:27:33;;;;;;;22.90;18.10;;;;;;;;;;5020233;28;20411;-76
2023/10/23 11:29:59;;;;;;;22.58;19.00;;;;;;;;;;5041365;28;20437;-77
2023/10/23 11:32:28;;;;;;;20.93;17.70;;;;;;;;;;5015250;28;20415;-82
2023/10/23 11:35:00;;;;;;;22.55;17.83;;;;;;;;;;5014618;28;20502;-78
2023/10/23 11:37:26;;;;;;;23.58;17.55;;;;;;;;;;5015288;28;20411;-78
2023/10/23 11:39:52;;;;;;;21.67;16.37;;;;;;;;;;5025854;28;20519;-78
2023/10/23 11:42:18;;;;;;;20.25;15.38;;;;;;;;;;4998542;28;20529;-78
2023/10/23 11:44:46;;;;;;;21.52;14.88;;;;;;;;;;5014788;28;20451;-82
2023/10/23 11:47:12;;;;;;;19.77;12.25;;;;;;;;;;5008385;28;20510;-82
2023/10/23 11:49:38;;;;;;;19.73;11.40;;;;;;;;;;5015786;28;20509;-82
2023/10/23 11:52:04;;;;;;;13.90;8.25;;;;;;;;;;5011846;28;20443;-82
2023/10/23 11:54:30;;;;;;;16.83;8.17;;;;;;;;;;5014518;28;20411;-82
2023/10/23 11:56:56;;;;;;;15.63;8.15;;;;;;;;;;5014657;28;20466;-82
2023/10/23 11:59:23;;;;;;;15.35;7.72;;;;;;;;;;5015681;28;20417;-82
2023/10/23 12:01:49;;;;;;;16.23;7.50;;;;;;;;;;5014635;28;20465;-83
2023/10/23 12:04:16;;;;;;;12.88;7.63;;;;;;;;;;5013933;28;20469;-82
2023/10/23 12:06:42;;;;;;;15.05;7.97;;;;;;;;;;5019354;28;20423;-82
2023/10/23 12:09:11;;;;;;;14.50;7.57;;;;;;;;;;5026483;28;20447;-82
2023/10/23 12:11:40;;;;;;;14.98;7.72;;;;;;;;;;5014490;28;20422;-83
2023/10/23 12:14:06;;;;;;;12.60;7.60;;;;;;;;;;5014119;28;20414;-83
2023/10/23 12:16:32;;;;;;;14.43;7.07;;;;;;;;;;5030177;28;20488;-79
2023/10/23 12:18:58;;;;;;;13.63;7.22;;;;;;;;;;5026385;28;20422;-79
2023/10/23 12:21:25;;;;;;;13.57;7.30;;;;;;;;;;5015149;28;20410;-76
2023/10/23 12:23:51;;;;;;;15.23;7.10;;;;;;;;;;5016543;28;20406;-76
2023/10/23 12:26:18;;;;;;;13.48;6.70;;;;;;;;;;5014313;28;20415;-76
2023/10/23 12:28:44;;;;;;;13.67;6.63;;;;;;;;;;5018202;28;20444;-76
2023/10/23 12:31:10;;;;;;;17.03;6.97;;;;;;;;;;5045350;28;20443;-76
2023/10/23 12:33:36;;;;;;;19.67;6.40;;;;;;;;;;5018655;28;20430;-76
2023/10/23 12:36:05;;;;;;;14.45;6.50;;;;;;;;;;5022249;28;20484;-76
2023/10/23 12:38:31;;;;;;;18.20;6.40;;;;;;;;;;5023881;28;20182;-78
2023/10/23 12:40:58;;;;;;;12.97;6.53;;;;;;;;;;5014238;28;20475;-78
2023/10/23 12:43:24;;;;;;;11.43;5.70;;;;;;;;;;5015473;28;20208;-78
2023/10/23 12:45:51;;;;;;;12.60;5.27;;;;;;;;;;5014436;28;20185;-78
2023/10/23 12:48:17;;;;;;;10.47;5.47;;;;;;;;;;5015368;28;20256;-79
2023/10/23 12:50:43;;;;;;;14.67;5.70;;;;;;;;;;5014724;28;20240;-79
2023/10/23 12:53:10;;;;;;;13.15;5.95;;;;;;;;;;5014412;28;20464;-78
2023/10/23 12:55:36;;;;;;;15.27;5.80;;;;;;;;;;5015743;28;20169;-78
2023/10/23 12:58:02;;;;;;;10.93;6.20;;;;;;;;;;5015515;28;20177;-79
2023/10/23 13:00:29;;;;;;;15.00;6.70;;;;;;;;;;4997897;28;20208;-79
2023/10/23 13:02:55;;;;;;;18.33;7.55;;;;;;;;;;5013357;28;20481;-79
2023/10/23 13:05:21;;;;;;;16.97;8.10;;;;;;;;;;5024966;28;20411;-78
2023/10/23 13:07:47;;;;;;;15.87;8.10;;;;;;;;;;5030038;28;20263;-78
2023/10/23 13:10:13;;;;;;;15.02;7.78;;;;;;;;;;4998946;28;20479;-78
2023/10/23 13:12:39;;;;;;;18.20;8.87;;;;;;;;;;5033331;28;20271;-79
2023/10/23 13:15:05;;;;;;;20.23;9.47;;;;;;;;;;5017030;28;20224;-79
2023/10/23 13:17:31;;;;;;;17.10;9.07;;;;;;;;;;5000232;28;20190;-79
2023/10/23 13:19:57;;;;;;;35.47;11.77;;;;;;;;;;5013726;28;20406;-79
2023/10/23 13:22:24;;;;;;;22.75;10.93;;;;;;;;;;5013903;28;20399;-78
2023/10/23 13:24:50;;;;;;;20.20;10.33;;;;;;;;;;5013211;28;20400;-79
2023/10/23 13:27:16;;;;;;;19.20;10.15;;;;;;;;;;5030577;28;20405;-82
2023/10/23 13:29:42;;;;;;;18.37;9.60;;;;;;;;;;5025253;28;20533;-82
2023/10/23 13:32:08;;;;;;;16.83;8.65;;;;;;;;;;5026666;28;20514;-83
2023/10/23 13:34:34;;;;;;;19.23;7.63;;;;;;;;;;5014905;28;20201;-83
2023/10/23 13:37:00;;;;;;;15.48;8.30;;;;;;;;;;5013206;28;20493;-83
2023/10/23 13:39:26;;;;;;;16.15;7.78;;;;;;;;;;4996649;28;20482;-82
2023/10/23 13:41:53;;;;;;;14.60;8.00;;;;;;;;;;5013983;28;20216;-82
2023/10/23 13:44:19;;;;;;;13.43;8.20;;;;;;;;;;5009301;28;20491;-76
2023/10/23 13:46:45;;;;;;;15.90;8.30;;;;;;;;;;5030975;28;20439;-76
2023/10/23 13:49:11;;;;;;;17.80;8.88;;;;;;;;;;5032152;28;20509;-77
2023/10/23 13:51:38;;;;;;;15.00;8.50;;;;;;;;;;4999675;28;20447;-77
2023/10/23 13:54:04;;;;;;;15.20;8.65;;;;;;;;;;5032205;28;20410;-76
2023/10/23 13:56:30;;;;;;;16.75;9.05;;;;;;;;;;5033274;28;20397;-76
2023/10/23 13:58:56;;;;;;;19.27;9.20;;;;;;;;;;5033305;28;20455;-76
2023/10/23 14:01:23;;;;;;;16.63;8.98;;;;;;;;;;5012859;28;20415;-78
2023/10/23 14:03:49;;;;;;;15.27;8.70;;;;;;;;;;5028980;28;20417;-78
2023/10/23 14:06:15;;;;;;;17.17;8.10;;;;;;;;;;5034150;28;20179;-78
2023/10/23 14:08:42;;;;;;;13.63;8.20;;;;;;;;;;5002088;28;20448;-77
2023/10/23 14:11:09;;;;;;;17.23;8.40;;;;;;;;;;5012967;28;20489;-78
2023/10/23 14:13:35;;;;;;;16.67;9.13;;;;;;;;;;4996236;28;20412;-77
2023/10/23 14:16:01;;;;;;;16.90;9.18;;;;;;;;;;4996083;28;20407;-78